Terminal Aerodrome Forecast
Issued by NWS Cleveland, OH

Home | Current Version | Previous Version | Text Only | Print | Product List | Glossary On
Versions: 1 2 3 4 5 6 7 8 9 10 11 12 13 14 15 16 17
465
FTUS41 KCLE 082340
TAFCAK
TAF
KCAK 082340Z 0900/0924 28006KT 6SM -SN BR SCT008 BKN035
     FM090300 26005KT 4SM -SN BR OVC025
      TEMPO 0906/0909 2SM -SHSN BR OVC008
     FM091100 26007KT 6SM -SHSN OVC012
     FM091600 26011KT P6SM BKN018=

USA.gov is the U.S. government's official web portal to all federal, state and local government web resources and services.